Cottonwd Hgts, Utah
Current Conditions -  °F | °C
As of 2:53 AM on Saturday 25 Oct 2014 (Local Time) from KSLC Reporting Station
Clear Clear  
Wind Chill: 64°   Ceiling: Unl
Heat Index: 64°   Visibility: 10mi
Dew Point: 26°   Wind: 18mph
Humidity: 24%   Direction: 160°SSE
Pressure: 30.09"   Gusts: NA
Location:  40.615°N, 111.891°W
Report Text: KSLC 250853Z 16016KT 10SM CLR 18/M03 A3009 RMK AO2 SLP141 T01781033 51001
Loading
Personal Weather Stations






























Interactive Weather Map
Tropical Storm Tracking
New forecast layout! Learn more

10-Day Weather Forecast

Advertisements
Track Severe Weather on mobile